sensor_id;sensor_type;location;lat;lon;timestamp;P1;durP1;ratioP1;P2;durP2;ratioP2
76292;SDS011;67256;51.154;4.164;2023-05-10T00:01:37;20.15;;;9.10;;
76292;SDS011;67256;51.154;4.164;2023-05-10T00:04:03;16.83;;;9.43;;
76292;SDS011;67256;51.154;4.164;2023-05-10T00:06:29;17.63;;;9.57;;
76292;SDS011;67256;51.154;4.164;2023-05-10T00:08:55;21.90;;;11.02;;
76292;SDS011;67256;51.154;4.164;2023-05-10T00:11:21;17.30;;;8.38;;
76292;SDS011;67256;51.154;4.164;2023-05-10T00:13:46;13.75;;;8.82;;
76292;SDS011;67256;51.154;4.164;2023-05-10T00:16:12;17.20;;;9.27;;
76292;SDS011;67256;51.154;4.164;2023-05-10T00:18:38;16.52;;;8.98;;
76292;SDS011;67256;51.154;4.164;2023-05-10T00:21:05;18.50;;;9.35;;
76292;SDS011;67256;51.154;4.164;2023-05-10T00:23:31;15.15;;;9.68;;
76292;SDS011;67256;51.154;4.164;2023-05-10T00:25:57;15.38;;;9.18;;
76292;SDS011;67256;51.154;4.164;2023-05-10T00:28:22;13.85;;;8.73;;
76292;SDS011;67256;51.154;4.164;2023-05-10T00:30:48;16.45;;;9.32;;
76292;SDS011;67256;51.154;4.164;2023-05-10T00:33:14;15.05;;;9.30;;
76292;SDS011;67256;51.154;4.164;2023-05-10T00:35:40;16.98;;;9.85;;
76292;SDS011;67256;51.154;4.164;2023-05-10T00:38:05;19.90;;;10.20;;
76292;SDS011;67256;51.154;4.164;2023-05-10T00:40:31;17.65;;;11.20;;
76292;SDS011;67256;51.154;4.164;2023-05-10T00:42:57;16.65;;;10.50;;
76292;SDS011;67256;51.154;4.164;2023-05-10T00:45:24;20.15;;;12.15;;
76292;SDS011;67256;51.154;4.164;2023-05-10T00:47:50;18.90;;;12.68;;
76292;SDS011;67256;51.154;4.164;2023-05-10T00:50:19;26.13;;;13.48;;
76292;SDS011;67256;51.154;4.164;2023-05-10T00:52:46;17.40;;;11.27;;
76292;SDS011;67256;51.154;4.164;2023-05-10T00:55:12;21.40;;;12.18;;
76292;SDS011;67256;51.154;4.164;2023-05-10T00:57:38;17.65;;;10.98;;
76292;SDS011;67256;51.154;4.164;2023-05-10T01:00:05;20.98;;;11.55;;
76292;SDS011;67256;51.154;4.164;2023-05-10T01:02:33;20.25;;;12.15;;
76292;SDS011;67256;51.154;4.164;2023-05-10T01:04:59;23.95;;;12.68;;
76292;SDS011;67256;51.154;4.164;2023-05-10T01:07:26;18.92;;;12.52;;
76292;SDS011;67256;51.154;4.164;2023-05-10T01:09:52;25.33;;;12.98;;
76292;SDS011;67256;51.154;4.164;2023-05-10T01:12:18;19.83;;;12.98;;
76292;SDS011;67256;51.154;4.164;2023-05-10T01:14:43;19.85;;;12.68;;
76292;SDS011;67256;51.154;4.164;2023-05-10T01:17:10;22.65;;;13.52;;
76292;SDS011;67256;51.154;4.164;2023-05-10T01:19:37;19.92;;;12.75;;
76292;SDS011;67256;51.154;4.164;2023-05-10T01:22:13;20.05;;;13.13;;
76292;SDS011;67256;51.154;4.164;2023-05-10T01:25:11;30.60;;;13.95;;
76292;SDS011;67256;51.154;4.164;2023-05-10T01:34:11;20.55;;;12.68;;
76292;SDS011;67256;51.154;4.164;2023-05-10T01:36:55;23.55;;;12.77;;
76292;SDS011;67256;51.154;4.164;2023-05-10T01:42:08;22.77;;;14.13;;
76292;SDS011;67256;51.154;4.164;2023-05-10T01:44:40;18.45;;;13.20;;
76292;SDS011;67256;51.154;4.164;2023-05-10T01:47:20;20.52;;;14.10;;
76292;SDS011;67256;51.154;4.164;2023-05-10T01:52:22;22.08;;;15.20;;
76292;SDS011;67256;51.154;4.164;2023-05-10T01:54:53;27.27;;;15.57;;
76292;SDS011;67256;51.154;4.164;2023-05-10T01:57:25;24.35;;;16.55;;
76292;SDS011;67256;51.154;4.164;2023-05-10T01:59:56;23.08;;;16.73;;
76292;SDS011;67256;51.154;4.164;2023-05-10T02:02:24;26.23;;;18.13;;
76292;SDS011;67256;51.154;4.164;2023-05-10T02:04:52;26.65;;;16.88;;
76292;SDS011;67256;51.154;4.164;2023-05-10T02:07:20;26.58;;;18.58;;
76292;SDS011;67256;51.154;4.164;2023-05-10T02:09:48;28.40;;;17.70;;
76292;SDS011;67256;51.154;4.164;2023-05-10T02:12:15;24.15;;;18.15;;
76292;SDS011;67256;51.154;4.164;2023-05-10T02:14:42;24.20;;;17.55;;
76292;SDS011;67256;51.154;4.164;2023-05-10T02:17:08;26.92;;;18.85;;
76292;SDS011;67256;51.154;4.164;2023-05-10T02:19:36;29.55;;;19.45;;
76292;SDS011;67256;51.154;4.164;2023-05-10T02:22:06;26.08;;;17.77;;
76292;SDS011;67256;51.154;4.164;2023-05-10T02:24:33;29.38;;;20.08;;
76292;SDS011;67256;51.154;4.164;2023-05-10T02:27:01;30.23;;;21.17;;
76292;SDS011;67256;51.154;4.164;2023-05-10T02:29:28;29.25;;;19.77;;
76292;SDS011;67256;51.154;4.164;2023-05-10T02:31:56;30.67;;;18.83;;
76292;SDS011;67256;51.154;4.164;2023-05-10T02:34:25;30.45;;;19.25;;
76292;SDS011;67256;51.154;4.164;2023-05-10T02:36:53;28.93;;;19.50;;
76292;SDS011;67256;51.154;4.164;2023-05-10T02:39:20;29.17;;;20.90;;
76292;SDS011;67256;51.154;4.164;2023-05-10T02:41:47;38.95;;;22.90;;
76292;SDS011;67256;51.154;4.164;2023-05-10T02:44:15;36.10;;;22.92;;
76292;SDS011;67256;51.154;4.164;2023-05-10T02:46:44;38.85;;;25.00;;
76292;SDS011;67256;51.154;4.164;2023-05-10T02:49:10;40.25;;;26.15;;
76292;SDS011;67256;51.154;4.164;2023-05-10T02:51:37;42.75;;;27.48;;
76292;SDS011;67256;51.154;4.164;2023-05-10T02:54:12;46.17;;;30.02;;
76292;SDS011;67256;51.154;4.164;2023-05-10T02:56:50;65.28;;;39.88;;
76292;SDS011;67256;51.154;4.164;2023-05-10T02:59:19;66.28;;;40.92;;
76292;SDS011;67256;51.154;4.164;2023-05-10T03:01:45;74.07;;;44.90;;
76292;SDS011;67256;51.154;4.164;2023-05-10T03:04:11;83.50;;;47.53;;
76292;SDS011;67256;51.154;4.164;2023-05-10T03:06:36;74.77;;;46.43;;
76292;SDS011;67256;51.154;4.164;2023-05-10T03:09:02;80.05;;;48.55;;
76292;SDS011;67256;51.154;4.164;2023-05-10T03:11:36;80.75;;;48.22;;
76292;SDS011;67256;51.154;4.164;2023-05-10T03:14:23;78.00;;;47.95;;
76292;SDS011;67256;51.154;4.164;2023-05-10T03:20:04;91.15;;;52.83;;
76292;SDS011;67256;51.154;4.164;2023-05-10T03:22:39;96.22;;;54.60;;
76292;SDS011;67256;51.154;4.164;2023-05-10T03:25:10;86.85;;;52.97;;
76292;SDS011;67256;51.154;4.164;2023-05-10T03:27:37;70.13;;;42.78;;
76292;SDS011;67256;51.154;4.164;2023-05-10T03:30:07;61.35;;;36.20;;
76292;SDS011;67256;51.154;4.164;2023-05-10T03:32:35;61.78;;;37.08;;
76292;SDS011;67256;51.154;4.164;2023-05-10T03:35:05;61.28;;;34.05;;
76292;SDS011;67256;51.154;4.164;2023-05-10T03:37:33;54.67;;;32.53;;
76292;SDS011;67256;51.154;4.164;2023-05-10T03:39:59;51.92;;;32.50;;
76292;SDS011;67256;51.154;4.164;2023-05-10T03:42:25;52.60;;;34.08;;
76292;SDS011;67256;51.154;4.164;2023-05-10T03:44:51;51.33;;;33.05;;
76292;SDS011;67256;51.154;4.164;2023-05-10T03:47:17;55.65;;;34.08;;
76292;SDS011;67256;51.154;4.164;2023-05-10T03:49:42;55.67;;;32.80;;
76292;SDS011;67256;51.154;4.164;2023-05-10T03:52:08;54.72;;;33.65;;
76292;SDS011;67256;51.154;4.164;2023-05-10T03:54:34;57.05;;;34.13;;
76292;SDS011;67256;51.154;4.164;2023-05-10T03:56:59;49.17;;;31.55;;
76292;SDS011;67256;51.154;4.164;2023-05-10T03:59:26;53.88;;;32.90;;
76292;SDS011;67256;51.154;4.164;2023-05-10T04:01:51;52.60;;;32.00;;
76292;SDS011;67256;51.154;4.164;2023-05-10T04:04:17;50.55;;;31.90;;
76292;SDS011;67256;51.154;4.164;2023-05-10T04:06:45;53.50;;;33.75;;
76292;SDS011;67256;51.154;4.164;2023-05-10T04:09:11;56.72;;;35.30;;
76292;SDS011;67256;51.154;4.164;2023-05-10T04:11:37;51.10;;;33.55;;
76292;SDS011;67256;51.154;4.164;2023-05-10T04:14:02;56.28;;;33.40;;
76292;SDS011;67256;51.154;4.164;2023-05-10T04:16:28;49.45;;;32.55;;
76292;SDS011;67256;51.154;4.164;2023-05-10T04:18:54;55.20;;;33.70;;
76292;SDS011;67256;51.154;4.164;2023-05-10T04:21:20;54.70;;;33.03;;
76292;SDS011;67256;51.154;4.164;2023-05-10T04:23:46;53.92;;;33.10;;
76292;SDS011;67256;51.154;4.164;2023-05-10T04:26:12;52.78;;;32.88;;
76292;SDS011;67256;51.154;4.164;2023-05-10T04:28:38;53.83;;;34.30;;
76292;SDS011;67256;51.154;4.164;2023-05-10T04:31:04;52.30;;;34.33;;
76292;SDS011;67256;51.154;4.164;2023-05-10T04:33:31;53.72;;;33.85;;
76292;SDS011;67256;51.154;4.164;2023-05-10T04:35:57;58.58;;;38.15;;
76292;SDS011;67256;51.154;4.164;2023-05-10T04:38:23;70.55;;;42.80;;
76292;SDS011;67256;51.154;4.164;2023-05-10T04:40:48;72.30;;;46.67;;
76292;SDS011;67256;51.154;4.164;2023-05-10T04:43:14;74.05;;;46.20;;
76292;SDS011;67256;51.154;4.164;2023-05-10T04:45:40;71.88;;;43.28;;
76292;SDS011;67256;51.154;4.164;2023-05-10T04:48:05;67.38;;;43.22;;
76292;SDS011;67256;51.154;4.164;2023-05-10T04:50:32;74.78;;;46.35;;
76292;SDS011;67256;51.154;4.164;2023-05-10T04:52:58;86.28;;;52.80;;
76292;SDS011;67256;51.154;4.164;2023-05-10T04:55:24;94.68;;;56.42;;
76292;SDS011;67256;51.154;4.164;2023-05-10T04:57:50;95.55;;;56.40;;
76292;SDS011;67256;51.154;4.164;2023-05-10T05:00:16;89.65;;;55.67;;
76292;SDS011;67256;51.154;4.164;2023-05-10T05:02:43;85.40;;;54.63;;
76292;SDS011;67256;51.154;4.164;2023-05-10T05:05:10;77.40;;;52.75;;
76292;SDS011;67256;51.154;4.164;2023-05-10T05:07:36;84.90;;;53.17;;
76292;SDS011;67256;51.154;4.164;2023-05-10T05:10:04;77.75;;;49.72;;
76292;SDS011;67256;51.154;4.164;2023-05-10T05:12:31;68.45;;;45.97;;
76292;SDS011;67256;51.154;4.164;2023-05-10T05:14:56;70.05;;;45.45;;
76292;SDS011;67256;51.154;4.164;2023-05-10T05:17:22;71.40;;;43.83;;
76292;SDS011;67256;51.154;4.164;2023-05-10T05:19:48;60.95;;;41.92;;
76292;SDS011;67256;51.154;4.164;2023-05-10T05:22:13;57.53;;;38.03;;
76292;SDS011;67256;51.154;4.164;2023-05-10T05:24:39;54.60;;;36.85;;
76292;SDS011;67256;51.154;4.164;2023-05-10T05:27:05;55.13;;;35.90;;
76292;SDS011;67256;51.154;4.164;2023-05-10T05:29:31;48.00;;;34.65;;
76292;SDS011;67256;51.154;4.164;2023-05-10T05:31:57;47.60;;;33.47;;
76292;SDS011;67256;51.154;4.164;2023-05-10T05:34:22;54.03;;;34.13;;
76292;SDS011;67256;51.154;4.164;2023-05-10T05:36:49;54.33;;;35.97;;
76292;SDS011;67256;51.154;4.164;2023-05-10T05:39:15;57.13;;;39.22;;
76292;SDS011;67256;51.154;4.164;2023-05-10T05:41:41;64.50;;;41.38;;
76292;SDS011;67256;51.154;4.164;2023-05-10T05:44:07;60.50;;;40.67;;
76292;SDS011;67256;51.154;4.164;2023-05-10T05:46:33;63.78;;;43.50;;
76292;SDS011;67256;51.154;4.164;2023-05-10T05:49:00;74.03;;;45.45;;
76292;SDS011;67256;51.154;4.164;2023-05-10T05:51:26;70.60;;;44.70;;
76292;SDS011;67256;51.154;4.164;2023-05-10T05:53:52;67.45;;;42.25;;
76292;SDS011;67256;51.154;4.164;2023-05-10T05:56:18;69.50;;;40.85;;
76292;SDS011;67256;51.154;4.164;2023-05-10T05:58:49;65.38;;;40.97;;
76292;SDS011;67256;51.154;4.164;2023-05-10T06:01:15;85.50;;;37.63;;
76292;SDS011;67256;51.154;4.164;2023-05-10T06:03:41;52.67;;;32.13;;
76292;SDS011;67256;51.154;4.164;2023-05-10T06:06:07;73.38;;;35.45;;
76292;SDS011;67256;51.154;4.164;2023-05-10T06:08:32;51.10;;;31.05;;
76292;SDS011;67256;51.154;4.164;2023-05-10T06:10:59;42.65;;;29.42;;
76292;SDS011;67256;51.154;4.164;2023-05-10T06:13:25;47.65;;;27.33;;
76292;SDS011;67256;51.154;4.164;2023-05-10T06:15:56;55.00;;;29.92;;
76292;SDS011;67256;51.154;4.164;2023-05-10T06:18:26;43.43;;;29.93;;
76292;SDS011;67256;51.154;4.164;2023-05-10T06:20:51;51.78;;;31.27;;
76292;SDS011;67256;51.154;4.164;2023-05-10T06:23:17;79.75;;;31.95;;
76292;SDS011;67256;51.154;4.164;2023-05-10T06:25:43;56.40;;;32.80;;
76292;SDS011;67256;51.154;4.164;2023-05-10T06:28:08;66.95;;;33.90;;
76292;SDS011;67256;51.154;4.164;2023-05-10T06:30:35;64.25;;;34.95;;
76292;SDS011;67256;51.154;4.164;2023-05-10T06:33:01;53.45;;;30.83;;
76292;SDS011;67256;51.154;4.164;2023-05-10T06:35:28;52.08;;;30.92;;
76292;SDS011;67256;51.154;4.164;2023-05-10T06:37:53;43.20;;;28.05;;
76292;SDS011;67256;51.154;4.164;2023-05-10T06:40:19;35.13;;;24.58;;
76292;SDS011;67256;51.154;4.164;2023-05-10T06:42:45;30.65;;;24.08;;
76292;SDS011;67256;51.154;4.164;2023-05-10T06:45:12;43.25;;;23.73;;
76292;SDS011;67256;51.154;4.164;2023-05-10T06:47:39;32.53;;;22.15;;
76292;SDS011;67256;51.154;4.164;2023-05-10T06:50:06;33.22;;;22.00;;
76292;SDS011;67256;51.154;4.164;2023-05-10T06:52:35;59.15;;;23.23;;
76292;SDS011;67256;51.154;4.164;2023-05-10T06:55:01;53.35;;;22.83;;
76292;SDS011;67256;51.154;4.164;2023-05-10T06:57:27;24.88;;;19.17;;
76292;SDS011;67256;51.154;4.164;2023-05-10T06:59:52;27.40;;;20.40;;
76292;SDS011;67256;51.154;4.164;2023-05-10T07:02:18;31.80;;;20.58;;
76292;SDS011;67256;51.154;4.164;2023-05-10T07:04:44;45.05;;;25.73;;
76292;SDS011;67256;51.154;4.164;2023-05-10T07:07:11;46.65;;;24.92;;
76292;SDS011;67256;51.154;4.164;2023-05-10T07:09:38;50.00;;;25.92;;
76292;SDS011;67256;51.154;4.164;2023-05-10T07:12:04;35.25;;;22.08;;
76292;SDS011;67256;51.154;4.164;2023-05-10T07:14:29;47.08;;;22.50;;
76292;SDS011;67256;51.154;4.164;2023-05-10T07:16:55;44.47;;;21.58;;
76292;SDS011;67256;51.154;4.164;2023-05-10T07:19:21;46.78;;;20.27;;
76292;SDS011;67256;51.154;4.164;2023-05-10T07:21:47;24.48;;;17.27;;
76292;SDS011;67256;51.154;4.164;2023-05-10T07:24:13;33.08;;;17.17;;
76292;SDS011;67256;51.154;4.164;2023-05-10T07:26:38;22.80;;;15.18;;
76292;SDS011;67256;51.154;4.164;2023-05-10T07:29:04;26.05;;;16.52;;
76292;SDS011;67256;51.154;4.164;2023-05-10T07:31:30;24.25;;;14.02;;
76292;SDS011;67256;51.154;4.164;2023-05-10T07:33:56;27.80;;;19.17;;
76292;SDS011;67256;51.154;4.164;2023-05-10T07:36:22;26.08;;;18.92;;
76292;SDS011;67256;51.154;4.164;2023-05-10T07:38:47;31.30;;;20.92;;
76292;SDS011;67256;51.154;4.164;2023-05-10T07:41:14;34.53;;;23.58;;
76292;SDS011;67256;51.154;4.164;2023-05-10T07:43:40;35.28;;;25.02;;
76292;SDS011;67256;51.154;4.164;2023-05-10T07:46:06;29.02;;;22.38;;
76292;SDS011;67256;51.154;4.164;2023-05-10T07:48:32;26.25;;;19.33;;
76292;SDS011;67256;51.154;4.164;2023-05-10T07:50:58;25.98;;;19.08;;
76292;SDS011;67256;51.154;4.164;2023-05-10T07:53:25;25.33;;;18.25;;
76292;SDS011;67256;51.154;4.164;2023-05-10T07:55:51;34.05;;;18.30;;
76292;SDS011;67256;51.154;4.164;2023-05-10T07:58:23;34.13;;;19.42;;
76292;SDS011;67256;51.154;4.164;2023-05-10T08:00:49;32.67;;;23.25;;
76292;SDS011;67256;51.154;4.164;2023-05-10T08:03:14;27.05;;;19.15;;
76292;SDS011;67256;51.154;4.164;2023-05-10T08:05:40;47.65;;;20.35;;
76292;SDS011;67256;51.154;4.164;2023-05-10T08:08:06;52.85;;;20.05;;
76292;SDS011;67256;51.154;4.164;2023-05-10T08:10:32;47.53;;;21.77;;
76292;SDS011;67256;51.154;4.164;2023-05-10T08:12:57;56.15;;;25.90;;
76292;SDS011;67256;51.154;4.164;2023-05-10T08:15:24;43.25;;;26.50;;
76292;SDS011;67256;51.154;4.164;2023-05-10T08:17:51;32.13;;;19.17;;
76292;SDS011;67256;51.154;4.164;2023-05-10T08:20:17;23.38;;;17.15;;
76292;SDS011;67256;51.154;4.164;2023-05-10T08:22:44;24.05;;;15.38;;
76292;SDS011;67256;51.154;4.164;2023-05-10T08:25:10;22.77;;;15.90;;
76292;SDS011;67256;51.154;4.164;2023-05-10T08:27:36;20.67;;;15.40;;
76292;SDS011;67256;51.154;4.164;2023-05-10T08:30:02;50.20;;;32.13;;
76292;SDS011;67256;51.154;4.164;2023-05-10T08:32:28;47.30;;;31.15;;
76292;SDS011;67256;51.154;4.164;2023-05-10T08:34:53;42.50;;;26.58;;
76292;SDS011;67256;51.154;4.164;2023-05-10T08:37:20;36.75;;;23.02;;
76292;SDS011;67256;51.154;4.164;2023-05-10T08:39:45;34.63;;;15.07;;
76292;SDS011;67256;51.154;4.164;2023-05-10T08:42:12;12.98;;;8.00;;
76292;SDS011;67256;51.154;4.164;2023-05-10T08:44:44;13.20;;;6.30;;
76292;SDS011;67256;51.154;4.164;2023-05-10T08:47:13;10.57;;;4.80;;
76292;SDS011;67256;51.154;4.164;2023-05-10T08:49:41;13.07;;;4.30;;
76292;SDS011;67256;51.154;4.164;2023-05-10T08:52:08;19.75;;;6.18;;
76292;SDS011;67256;51.154;4.164;2023-05-10T08:54:38;32.90;;;8.93;;
76292;SDS011;67256;51.154;4.164;2023-05-10T08:57:04;9.85;;;5.95;;
76292;SDS011;67256;51.154;4.164;2023-05-10T08:59:30;17.63;;;6.22;;
76292;SDS011;67256;51.154;4.164;2023-05-10T09:01:57;22.67;;;8.68;;
76292;SDS011;67256;51.154;4.164;2023-05-10T09:04:23;39.35;;;16.08;;
76292;SDS011;67256;51.154;4.164;2023-05-10T09:06:49;32.13;;;17.00;;
76292;SDS011;67256;51.154;4.164;2023-05-10T09:09:15;93.82;;;21.67;;
76292;SDS011;67256;51.154;4.164;2023-05-10T09:11:42;32.08;;;16.95;;
76292;SDS011;67256;51.154;4.164;2023-05-10T09:14:09;52.60;;;20.35;;
76292;SDS011;67256;51.154;4.164;2023-05-10T09:16:37;26.17;;;17.85;;
76292;SDS011;67256;51.154;4.164;2023-05-10T09:19:03;65.57;;;21.10;;
76292;SDS011;67256;51.154;4.164;2023-05-10T09:21:29;49.10;;;19.48;;
76292;SDS011;67256;51.154;4.164;2023-05-10T09:23:56;35.65;;;18.90;;
76292;SDS011;67256;51.154;4.164;2023-05-10T09:26:22;27.23;;;16.88;;
76292;SDS011;67256;51.154;4.164;2023-05-10T09:28:52;33.67;;;17.02;;
76292;SDS011;67256;51.154;4.164;2023-05-10T09:31:20;60.92;;;20.65;;
76292;SDS011;67256;51.154;4.164;2023-05-10T09:33:46;53.33;;;18.65;;
76292;SDS011;67256;51.154;4.164;2023-05-10T09:36:13;40.75;;;18.67;;
76292;SDS011;67256;51.154;4.164;2023-05-10T09:38:48;47.80;;;19.42;;
76292;SDS011;67256;51.154;4.164;2023-05-10T09:41:19;25.92;;;16.35;;
76292;SDS011;67256;51.154;4.164;2023-05-10T09:46:14;25.10;;;15.32;;
76292;SDS011;67256;51.154;4.164;2023-05-10T09:48:44;23.17;;;15.27;;
76292;SDS011;67256;51.154;4.164;2023-05-10T09:51:24;26.25;;;15.43;;
76292;SDS011;67256;51.154;4.164;2023-05-10T09:54:33;27.83;;;14.55;;
76292;SDS011;67256;51.154;4.164;2023-05-10T09:56:41;29.65;;;14.13;;
76292;SDS011;67256;51.154;4.164;2023-05-10T09:59:09;23.90;;;14.95;;
76292;SDS011;67256;51.154;4.164;2023-05-10T10:01:37;20.55;;;12.68;;
76292;SDS011;67256;51.154;4.164;2023-05-10T10:04:04;17.85;;;13.23;;
76292;SDS011;67256;51.154;4.164;2023-05-10T10:06:38;18.00;;;12.60;;
76292;SDS011;67256;51.154;4.164;2023-05-10T10:09:05;18.23;;;12.35;;
76292;SDS011;67256;51.154;4.164;2023-05-10T10:11:34;18.90;;;12.23;;
76292;SDS011;67256;51.154;4.164;2023-05-10T10:14:01;22.40;;;14.05;;
76292;SDS011;67256;51.154;4.164;2023-05-10T10:16:30;16.35;;;12.20;;
76292;SDS011;67256;51.154;4.164;2023-05-10T10:18:56;23.00;;;13.00;;
76292;SDS011;67256;51.154;4.164;2023-05-10T10:21:22;20.33;;;12.57;;
76292;SDS011;67256;51.154;4.164;2023-05-10T10:23:49;21.40;;;13.15;;
76292;SDS011;67256;51.154;4.164;2023-05-10T10:26:15;18.67;;;11.63;;
76292;SDS011;67256;51.154;4.164;2023-05-10T10:31:46;25.35;;;12.90;;
76292;SDS011;67256;51.154;4.164;2023-05-10T10:34:28;17.52;;;12.88;;
76292;SDS011;67256;51.154;4.164;2023-05-10T10:36:55;19.35;;;13.02;;
76292;SDS011;67256;51.154;4.164;2023-05-10T10:39:23;19.27;;;12.55;;
76292;SDS011;67256;51.154;4.164;2023-05-10T10:41:55;19.98;;;12.68;;
76292;SDS011;67256;51.154;4.164;2023-05-10T11:00:29;16.65;;;11.15;;
76292;SDS011;67256;51.154;4.164;2023-05-10T11:03:04;20.65;;;11.52;;
76292;SDS011;67256;51.154;4.164;2023-05-10T11:08:41;16.88;;;11.73;;
76292;SDS011;67256;51.154;4.164;2023-05-10T11:21:27;16.13;;;10.77;;
76292;SDS011;67256;51.154;4.164;2023-05-10T11:23:58;14.68;;;10.77;;
76292;SDS011;67256;51.154;4.164;2023-05-10T11:26:25;16.65;;;10.50;;
76292;SDS011;67256;51.154;4.164;2023-05-10T11:28:56;16.33;;;10.65;;
76292;SDS011;67256;51.154;4.164;2023-05-10T11:31:23;14.15;;;10.55;;
76292;SDS011;67256;51.154;4.164;2023-05-10T11:33:54;17.33;;;10.25;;
76292;SDS011;67256;51.154;4.164;2023-05-10T11:36:21;18.90;;;10.82;;
76292;SDS011;67256;51.154;4.164;2023-05-10T11:38:52;13.90;;;9.63;;
76292;SDS011;67256;51.154;4.164;2023-05-10T11:41:19;14.57;;;10.43;;
76292;SDS011;67256;51.154;4.164;2023-05-10T11:46:15;15.98;;;10.15;;
76292;SDS011;67256;51.154;4.164;2023-05-10T11:48:42;13.88;;;9.80;;
76292;SDS011;67256;51.154;4.164;2023-05-10T11:51:08;12.90;;;9.30;;
76292;SDS011;67256;51.154;4.164;2023-05-10T11:53:35;15.52;;;10.85;;
76292;SDS011;67256;51.154;4.164;2023-05-10T11:58:39;13.50;;;10.18;;
76292;SDS011;67256;51.154;4.164;2023-05-10T12:01:05;12.00;;;9.93;;
76292;SDS011;67256;51.154;4.164;2023-05-10T12:03:33;15.95;;;10.40;;
76292;SDS011;67256;51.154;4.164;2023-05-10T12:06:00;14.23;;;10.23;;
76292;SDS011;67256;51.154;4.164;2023-05-10T12:08:27;15.07;;;9.90;;
76292;SDS011;67256;51.154;4.164;2023-05-10T12:11:03;16.30;;;10.43;;
76292;SDS011;67256;51.154;4.164;2023-05-10T12:16:12;13.20;;;9.70;;
76292;SDS011;67256;51.154;4.164;2023-05-10T12:18:49;12.75;;;10.25;;
76292;SDS011;67256;51.154;4.164;2023-05-10T12:21:20;14.30;;;9.65;;
76292;SDS011;67256;51.154;4.164;2023-05-10T12:23:47;17.63;;;10.23;;
76292;SDS011;67256;51.154;4.164;2023-05-10T12:26:18;12.25;;;10.00;;
76292;SDS011;67256;51.154;4.164;2023-05-10T12:28:46;14.70;;;9.55;;
76292;SDS011;67256;51.154;4.164;2023-05-10T12:31:12;15.55;;;9.15;;
76292;SDS011;67256;51.154;4.164;2023-05-10T12:33:42;17.10;;;9.63;;
76292;SDS011;67256;51.154;4.164;2023-05-10T12:36:12;12.65;;;9.10;;
76292;SDS011;67256;51.154;4.164;2023-05-10T12:38:40;16.60;;;11.25;;
76292;SDS011;67256;51.154;4.164;2023-05-10T12:41:13;14.25;;;9.63;;
76292;SDS011;67256;51.154;4.164;2023-05-10T12:43:41;15.82;;;10.55;;
76292;SDS011;67256;51.154;4.164;2023-05-10T12:46:07;15.52;;;9.95;;
76292;SDS011;67256;51.154;4.164;2023-05-10T12:48:34;17.15;;;10.77;;
76292;SDS011;67256;51.154;4.164;2023-05-10T12:51:01;14.43;;;11.32;;
76292;SDS011;67256;51.154;4.164;2023-05-10T12:53:27;17.10;;;12.40;;
76292;SDS011;67256;51.154;4.164;2023-05-10T12:55:53;20.30;;;12.20;;
76292;SDS011;67256;51.154;4.164;2023-05-10T12:58:19;16.88;;;12.10;;
76292;SDS011;67256;51.154;4.164;2023-05-10T13:00:45;18.40;;;12.77;;
76292;SDS011;67256;51.154;4.164;2023-05-10T13:03:11;18.30;;;12.98;;
76292;SDS011;67256;51.154;4.164;2023-05-10T13:05:36;15.60;;;13.90;;
76292;SDS011;67256;51.154;4.164;2023-05-10T13:08:02;19.58;;;13.00;;
76292;SDS011;67256;51.154;4.164;2023-05-10T13:10:29;23.08;;;14.65;;
76292;SDS011;67256;51.154;4.164;2023-05-10T13:12:56;16.20;;;13.55;;
76292;SDS011;67256;51.154;4.164;2023-05-10T13:15:23;18.33;;;13.80;;
76292;SDS011;67256;51.154;4.164;2023-05-10T13:17:48;21.27;;;15.32;;
76292;SDS011;67256;51.154;4.164;2023-05-10T13:20:14;22.50;;;15.20;;
76292;SDS011;67256;51.154;4.164;2023-05-10T13:22:40;19.33;;;14.82;;
76292;SDS011;67256;51.154;4.164;2023-05-10T13:25:08;23.98;;;14.70;;
76292;SDS011;67256;51.154;4.164;2023-05-10T13:27:35;19.52;;;14.95;;
76292;SDS011;67256;51.154;4.164;2023-05-10T13:30:02;19.40;;;15.40;;
76292;SDS011;67256;51.154;4.164;2023-05-10T13:32:28;21.27;;;14.75;;
76292;SDS011;67256;51.154;4.164;2023-05-10T13:34:54;23.48;;;15.85;;
76292;SDS011;67256;51.154;4.164;2023-05-10T13:37:20;21.15;;;14.35;;
76292;SDS011;67256;51.154;4.164;2023-05-10T13:39:47;22.17;;;14.98;;
76292;SDS011;67256;51.154;4.164;2023-05-10T13:42:13;22.30;;;14.60;;
76292;SDS011;67256;51.154;4.164;2023-05-10T13:44:39;18.52;;;13.48;;
76292;SDS011;67256;51.154;4.164;2023-05-10T13:47:05;17.35;;;14.10;;
76292;SDS011;67256;51.154;4.164;2023-05-10T13:49:31;20.58;;;14.82;;
76292;SDS011;67256;51.154;4.164;2023-05-10T13:51:57;22.20;;;14.93;;
76292;SDS011;67256;51.154;4.164;2023-05-10T13:54:23;19.75;;;15.07;;
76292;SDS011;67256;51.154;4.164;2023-05-10T13:56:49;17.58;;;14.20;;
76292;SDS011;67256;51.154;4.164;2023-05-10T13:59:14;20.27;;;15.00;;
76292;SDS011;67256;51.154;4.164;2023-05-10T14:01:40;21.10;;;15.20;;
76292;SDS011;67256;51.154;4.164;2023-05-10T14:04:08;22.38;;;15.45;;
76292;SDS011;67256;51.154;4.164;2023-05-10T14:06:36;19.92;;;14.55;;
76292;SDS011;67256;51.154;4.164;2023-05-10T14:09:02;19.02;;;14.57;;
76292;SDS011;67256;51.154;4.164;2023-05-10T14:11:28;19.55;;;15.25;;
76292;SDS011;67256;51.154;4.164;2023-05-10T14:13:54;20.83;;;14.35;;
76292;SDS011;67256;51.154;4.164;2023-05-10T14:16:20;21.50;;;14.80;;
76292;SDS011;67256;51.154;4.164;2023-05-10T14:18:46;25.67;;;16.27;;
76292;SDS011;67256;51.154;4.164;2023-05-10T14:21:12;19.23;;;14.43;;
76292;SDS011;67256;51.154;4.164;2023-05-10T14:23:38;15.15;;;10.50;;
76292;SDS011;67256;51.154;4.164;2023-05-10T14:26:04;6.28;;;4.82;;
76292;SDS011;67256;51.154;4.164;2023-05-10T14:28:29;7.47;;;3.65;;
76292;SDS011;67256;51.154;4.164;2023-05-10T14:30:55;7.07;;;2.80;;
76292;SDS011;67256;51.154;4.164;2023-05-10T14:33:21;4.25;;;3.05;;
76292;SDS011;67256;51.154;4.164;2023-05-10T14:35:47;3.85;;;3.00;;
76292;SDS011;67256;51.154;4.164;2023-05-10T14:38:13;5.40;;;3.92;;
76292;SDS011;67256;51.154;4.164;2023-05-10T14:40:39;4.90;;;4.05;;
76292;SDS011;67256;51.154;4.164;2023-05-10T14:43:05;6.97;;;4.22;;
76292;SDS011;67256;51.154;4.164;2023-05-10T14:45:31;5.35;;;4.43;;
76292;SDS011;67256;51.154;4.164;2023-05-10T14:47:57;6.22;;;5.07;;
76292;SDS011;67256;51.154;4.164;2023-05-10T14:50:24;6.57;;;4.60;;
76292;SDS011;67256;51.154;4.164;2023-05-10T14:52:50;7.60;;;5.88;;
76292;SDS011;67256;51.154;4.164;2023-05-10T14:55:16;5.53;;;4.63;;
76292;SDS011;67256;51.154;4.164;2023-05-10T14:57:42;7.65;;;5.45;;
76292;SDS011;67256;51.154;4.164;2023-05-10T15:00:09;6.60;;;5.15;;
76292;SDS011;67256;51.154;4.164;2023-05-10T15:02:35;10.20;;;7.28;;
76292;SDS011;67256;51.154;4.164;2023-05-10T15:05:01;11.35;;;6.40;;
76292;SDS011;67256;51.154;4.164;2023-05-10T15:07:27;5.53;;;3.83;;
76292;SDS011;67256;51.154;4.164;2023-05-10T15:09:53;5.93;;;4.60;;
76292;SDS011;67256;51.154;4.164;2023-05-10T15:12:19;5.80;;;4.65;;
76292;SDS011;67256;51.154;4.164;2023-05-10T15:14:45;7.15;;;4.40;;
76292;SDS011;67256;51.154;4.164;2023-05-10T15:17:11;6.78;;;5.00;;
76292;SDS011;67256;51.154;4.164;2023-05-10T15:19:37;5.68;;;4.15;;
76292;SDS011;67256;51.154;4.164;2023-05-10T15:22:03;5.68;;;3.90;;